Time;durP1;ratioP1;P1;durP2;ratioP2;P2;SDS_P1;SDS_P2;PMS_P1;PMS_P2;Temp;Humidity;BMP_temperature;BMP_pressure;BME280_temperature;BME280_humidity;BME280_pressure;Samples;Min_cycle;Max_cycle;Signal;HPM_P1;HPM_P2
2021/07/08 00:00:40;;;;;;;5.45;3.60;;;18.90;70.70;;;;;;5076318;28;20491;-80
2021/07/08 00:03:06;;;;;;;4.20;2.90;;;18.90;70.70;;;;;;5076286;28;20048;-80
2021/07/08 00:05:37;;;;;;;3.65;3.30;;;18.90;70.70;;;;;;5058277;28;20048;-79
2021/07/08 00:08:04;;;;;;;3.42;3.13;;;19.00;70.90;;;;;;5076383;28;20029;-80
2021/07/08 00:10:38;;;;;;;4.60;2.83;;;18.90;70.80;;;;;;5058453;28;20025;-79
2021/07/08 00:13:05;;;;;;;3.17;2.70;;;18.90;70.90;;;;;;5058734;28;20017;-80
2021/07/08 00:15:31;;;;;;;5.50;3.10;;;18.90;70.90;;;;;;5058297;28;20024;-80
2021/07/08 00:17:58;;;;;;;4.93;2.80;;;18.90;71.00;;;;;;5058314;28;20060;-80
2021/07/08 00:20:26;;;;;;;4.00;3.00;;;18.80;71.00;;;;;;5076173;28;20036;-79
2021/07/08 00:22:51;;;;;;;3.78;2.83;;;18.80;71.20;;;;;;5076331;28;20499;-79
2021/07/08 00:25:23;;;;;;;4.07;2.90;;;18.80;71.30;;;;;;5076023;28;20024;-78
2021/07/08 00:27:49;;;;;;;4.05;2.97;;;18.80;71.30;;;;;;5058420;28;20067;-80
2021/07/08 00:30:16;;;;;;;4.88;3.28;;;18.80;71.30;;;;;;5058865;28;20024;-80
2021/07/08 00:32:42;;;;;;;4.65;3.15;;;18.80;71.40;;;;;;5059508;28;20047;-80
2021/07/08 00:35:10;;;;;;;3.47;3.10;;;18.80;71.40;;;;;;5058399;28;20024;-79
2021/07/08 00:37:35;;;;;;;4.75;2.88;;;18.80;71.50;;;;;;5076758;28;20028;-79
2021/07/08 00:40:02;;;;;;;3.92;3.20;;;18.80;71.50;;;;;;5058569;28;20086;-80
2021/07/08 00:42:28;;;;;;;4.68;3.00;;;18.80;71.50;;;;;;5057010;28;20395;-79
2021/07/08 00:44:54;;;;;;;5.50;3.08;;;18.80;72.10;;;;;;5058291;28;20021;-80
2021/07/08 00:47:19;;;;;;;5.80;3.22;;;18.80;71.50;;;;;;5057692;28;20020;-79
2021/07/08 00:49:45;;;;;;;4.60;3.17;;;18.70;71.50;;;;;;5057760;28;20031;-79
2021/07/08 00:52:10;;;;;;;3.05;2.75;;;18.70;71.70;;;;;;5075984;28;20024;-80
2021/07/08 00:54:36;;;;;;;4.82;2.90;;;18.60;71.70;;;;;;5075569;28;20048;-79
2021/07/08 00:57:03;;;;;;;3.83;2.63;;;18.60;71.90;;;;;;5075523;28;20035;-79
2021/07/08 00:59:29;;;;;;;3.72;2.42;;;18.60;72.00;;;;;;5075191;28;20054;-79
2021/07/08 01:01:57;;;;;;;4.00;2.70;;;18.60;72.00;;;;;;5075652;28;20407;-80
2021/07/08 01:04:23;;;;;;;4.80;2.78;;;18.50;72.00;;;;;;5057369;28;20024;-81
2021/07/08 01:06:49;;;;;;;3.45;2.90;;;18.60;72.00;;;;;;5075113;28;20056;-81
2021/07/08 01:09:15;;;;;;;3.35;2.80;;;18.60;71.90;;;;;;5057225;28;20025;-80
2021/07/08 01:11:42;;;;;;;3.95;2.63;;;18.60;71.90;;;;;;5075183;28;20035;-80
2021/07/08 01:14:08;;;;;;;3.45;3.15;;;18.70;71.90;;;;;;5075162;28;20471;-80
2021/07/08 01:16:35;;;;;;;4.03;2.90;;;18.60;71.90;;;;;;5075029;28;20067;-80
2021/07/08 01:19:03;;;;;;;3.67;2.90;;;18.60;72.00;;;;;;5075002;28;20068;-80
2021/07/08 01:21:31;;;;;;;3.22;2.85;;;18.70;72.10;;;;;;5057002;28;20059;-78
2021/07/08 01:24:05;;;;;;;3.78;3.03;;;18.70;72.20;;;;;;5057059;28;20055;-79
2021/07/08 01:26:31;;;;;;;3.78;2.78;;;18.70;72.20;;;;;;5074743;28;20139;-81
2021/07/08 01:28:57;;;;;;;3.10;2.80;;;18.70;72.20;;;;;;5056940;28;20028;-79
2021/07/08 01:31:24;;;;;;;3.90;2.70;;;18.70;72.30;;;;;;5056411;28;20021;-79
2021/07/08 01:33:51;;;;;;;3.05;2.75;;;18.70;72.30;;;;;;5056678;28;20071;-79
2021/07/08 01:36:17;;;;;;;3.03;2.70;;;18.70;72.30;;;;;;5056714;28;20040;-80
2021/07/08 01:38:44;;;;;;;4.00;2.88;;;18.70;72.40;;;;;;5074909;28;20017;-80
2021/07/08 01:41:10;;;;;;;3.97;2.85;;;18.60;72.40;;;;;;5074606;28;20062;-80
2021/07/08 01:43:38;;;;;;;3.05;2.80;;;18.60;72.50;;;;;;5074465;28;20052;-81
2021/07/08 01:46:09;;;;;;;3.75;3.03;;;18.70;72.60;;;;;;5056403;28;20016;-80
2021/07/08 01:48:35;;;;;;;4.03;2.70;;;18.70;72.60;;;;;;5056448;28;20052;-80
2021/07/08 01:51:03;;;;;;;3.20;2.88;;;18.70;72.50;;;;;;5056341;28;20021;-80
2021/07/08 01:53:29;;;;;;;3.75;2.90;;;18.70;72.60;;;;;;5056439;28;20044;-80
2021/07/08 01:55:57;;;;;;;3.78;3.00;;;18.70;72.50;;;;;;5056347;28;20021;-80
2021/07/08 01:58:23;;;;;;;3.53;2.78;;;18.70;72.50;;;;;;5056313;28;20491;-79
2021/07/08 02:00:50;;;;;;;3.17;2.88;;;18.80;72.60;;;;;;5056240;28;20024;-81
2021/07/08 02:03:15;;;;;;;3.38;2.83;;;18.80;72.50;;;;;;5074140;28;20075;-80
2021/07/08 02:05:43;;;;;;;3.85;2.60;;;18.80;72.50;;;;;;5056002;28;20020;-80
2021/07/08 02:08:09;;;;;;;2.90;2.60;;;18.80;72.50;;;;;;5056187;28;20086;-80
2021/07/08 02:10:34;;;;;;;3.30;3.00;;;18.80;72.60;;;;;;5073779;28;20029;-80
2021/07/08 02:13:00;;;;;;;4.22;2.90;;;18.80;72.60;;;;;;5073887;28;20025;-80
2021/07/08 02:15:26;;;;;;;3.47;2.80;;;18.80;72.60;;;;;;5073628;28;20024;-80
2021/07/08 02:17:52;;;;;;;3.10;2.80;;;18.90;72.70;;;;;;5073457;28;20052;-80
2021/07/08 02:20:18;;;;;;;3.80;3.10;;;18.80;72.80;;;;;;5055925;28;20079;-80
2021/07/08 02:22:45;;;;;;;5.05;3.50;;;18.90;72.80;;;;;;5055809;28;20119;-81
2021/07/08 02:25:12;;;;;;;3.85;3.47;;;18.80;72.70;;;;;;5055805;28;20032;-80
2021/07/08 02:27:38;;;;;;;5.07;3.47;;;18.80;72.80;;;;;;5056072;28;20032;-80
2021/07/08 02:30:12;;;;;;;3.92;3.33;;;18.80;72.80;;;;;;5055655;28;20028;-80
2021/07/08 02:32:40;;;;;;;3.50;3.20;;;18.80;72.90;;;;;;5055886;28;20020;-80
2021/07/08 02:35:07;;;;;;;3.72;3.10;;;18.80;72.90;;;;;;5055557;28;20477;-79
2021/07/08 02:37:34;;;;;;;4.18;3.10;;;18.70;72.90;;;;;;5073446;28;20020;-79
2021/07/08 02:39:59;;;;;;;5.30;3.10;;;18.70;73.00;;;;;;5073603;28;20368;-79
2021/07/08 02:42:25;;;;;;;3.58;2.97;;;18.60;73.10;;;;;;5055588;28;20032;-79
2021/07/08 02:44:51;;;;;;;3.38;3.08;;;18.60;73.10;;;;;;5055385;28;20336;-73
2021/07/08 02:47:16;;;;;;;3.92;3.20;;;18.60;73.20;;;;;;5073193;28;20024;-74
2021/07/08 02:49:42;;;;;;;3.88;3.33;;;18.60;73.30;;;;;;5073119;28;20144;-74
2021/07/08 02:52:07;;;;;;;4.43;3.35;;;18.50;73.30;;;;;;5073011;28;20464;-74
2021/07/08 02:54:34;;;;;;;3.67;3.38;;;18.60;73.40;;;;;;5055199;28;20024;-75
2021/07/08 02:56:59;;;;;;;4.60;3.60;;;18.50;73.40;;;;;;5073165;28;20440;-74
2021/07/08 02:59:25;;;;;;;3.83;3.42;;;18.50;73.50;;;;;;5055103;28;20017;-74
2021/07/08 03:01:51;;;;;;;3.90;3.35;;;18.40;73.50;;;;;;5072930;28;20078;-74
2021/07/08 03:04:17;;;;;;;3.90;3.05;;;18.50;73.70;;;;;;5072646;28;20472;-74
2021/07/08 03:06:43;;;;;;;3.70;3.33;;;18.40;73.70;;;;;;5055035;28;20025;-74
2021/07/08 03:09:08;;;;;;;4.53;3.60;;;18.40;73.80;;;;;;5072939;28;20039;-73
2021/07/08 03:11:34;;;;;;;4.43;3.50;;;18.40;73.80;;;;;;5072894;28;20082;-74
2021/07/08 03:14:00;;;;;;;4.63;3.17;;;18.40;73.90;;;;;;5072949;28;20031;-74
2021/07/08 03:16:25;;;;;;;5.20;3.53;;;18.40;73.80;;;;;;5054908;28;20119;-73
2021/07/08 03:18:51;;;;;;;3.50;3.20;;;18.40;73.80;;;;;;5054713;28;20552;-73
2021/07/08 03:21:16;;;;;;;4.15;3.13;;;18.40;73.80;;;;;;5054880;28;20025;-74
2021/07/08 03:23:42;;;;;;;4.32;3.42;;;18.40;73.90;;;;;;5054716;28;20024;-74
2021/07/08 03:26:08;;;;;;;4.18;3.08;;;18.40;73.80;;;;;;5055096;28;20032;-73
2021/07/08 03:28:35;;;;;;;4.60;3.08;;;18.50;73.90;;;;;;5054740;28;20517;-73
2021/07/08 03:31:01;;;;;;;3.72;3.00;;;18.50;73.90;;;;;;5055049;28;20423;-73
2021/07/08 03:33:27;;;;;;;5.88;3.10;;;18.50;73.90;;;;;;5054782;28;20100;-74
2021/07/08 03:35:52;;;;;;;3.10;2.80;;;18.50;73.90;;;;;;5072792;28;20472;-73
2021/07/08 03:38:18;;;;;;;3.47;3.17;;;18.50;73.80;;;;;;5072677;28;20032;-73
2021/07/08 03:40:44;;;;;;;3.33;2.90;;;18.60;73.90;;;;;;5054726;28;20025;-73
2021/07/08 03:43:09;;;;;;;3.60;3.25;;;18.60;73.90;;;;;;5072702;28;20040;-73
2021/07/08 03:45:35;;;;;;;3.30;3.00;;;18.60;73.90;;;;;;5054495;28;20123;-73
2021/07/08 03:48:01;;;;;;;3.50;3.20;;;18.60;73.90;;;;;;5054630;28;20033;-73
2021/07/08 03:50:26;;;;;;;4.50;3.50;;;18.60;73.90;;;;;;5054441;28;20027;-72
2021/07/08 03:52:52;;;;;;;4.97;3.15;;;18.60;73.90;;;;;;5054486;28;20095;-73
2021/07/08 03:55:21;;;;;;;3.80;3.40;;;18.70;73.90;;;;;;5054621;28;20028;-74
2021/07/08 03:57:53;;;;;;;3.40;3.10;;;18.70;73.90;;;;;;5054620;28;20024;-73
2021/07/08 04:00:31;;;;;;;4.72;3.42;;;18.70;73.80;;;;;;5054125;28;20025;-73
2021/07/08 04:03:00;;;;;;;4.57;3.08;;;18.80;73.90;;;;;;5054565;28;20392;-73
2021/07/08 04:05:26;;;;;;;3.45;3.13;;;18.80;73.80;;;;;;5051359;28;20032;-73
2021/07/08 04:07:51;;;;;;;5.70;3.30;;;18.80;73.80;;;;;;5072419;28;20044;-73
2021/07/08 04:10:17;;;;;;;3.85;3.20;;;18.80;73.80;;;;;;5072300;28;20056;-74
2021/07/08 04:12:44;;;;;;;3.85;3.10;;;18.90;73.80;;;;;;5072367;28;20031;-74
2021/07/08 04:15:10;;;;;;;3.35;3.00;;;18.90;73.90;;;;;;5054206;28;20020;-74
2021/07/08 04:17:36;;;;;;;5.50;3.40;;;18.90;73.90;;;;;;5057395;28;20028;-74
2021/07/08 04:20:03;;;;;;;3.33;3.03;;;18.90;73.80;;;;;;5075986;28;20024;-74
2021/07/08 04:22:29;;;;;;;4.22;3.20;;;18.90;73.80;;;;;;5057883;28;20039;-74
2021/07/08 04:24:54;;;;;;;4.43;3.67;;;19.00;73.90;;;;;;5057986;28;20409;-74
2021/07/08 04:27:20;;;;;;;4.30;3.75;;;19.00;74.00;;;;;;5075888;28;20452;-74
2021/07/08 04:29:45;;;;;;;4.45;3.40;;;19.00;74.00;;;;;;5057846;28;20087;-74
2021/07/08 04:32:11;;;;;;;5.13;3.42;;;19.00;74.00;;;;;;5075833;28;20019;-74
2021/07/08 04:34:36;;;;;;;4.45;3.75;;;19.00;74.00;;;;;;5075707;28;20063;-74
2021/07/08 04:37:03;;;;;;;4.03;3.38;;;19.00;74.00;;;;;;5075889;28;20062;-73
2021/07/08 04:39:29;;;;;;;4.10;3.70;;;19.00;74.00;;;;;;5075555;28;20021;-74
2021/07/08 04:41:54;;;;;;;4.65;3.80;;;19.10;74.00;;;;;;5057606;28;20029;-74
2021/07/08 04:44:20;;;;;;;4.80;3.30;;;19.00;73.90;;;;;;5075612;28;20021;-73
2021/07/08 04:46:45;;;;;;;3.83;3.42;;;19.00;73.90;;;;;;5075513;28;20035;-73
2021/07/08 04:49:12;;;;;;;3.70;3.40;;;19.10;73.90;;;;;;5075413;28;20510;-73
2021/07/08 04:51:38;;;;;;;3.70;3.40;;;19.10;73.90;;;;;;5057400;28;20025;-73
2021/07/08 04:54:03;;;;;;;3.88;3.58;;;19.10;73.90;;;;;;5075374;28;20020;-73
2021/07/08 04:56:29;;;;;;;3.80;3.45;;;19.10;74.00;;;;;;5057329;28;20021;-73
2021/07/08 04:58:54;;;;;;;4.20;3.60;;;19.10;73.90;;;;;;5075771;28;20028;-73
2021/07/08 05:01:20;;;;;;;4.35;3.95;;;19.10;73.90;;;;;;5057166;28;20028;-73
2021/07/08 05:03:45;;;;;;;5.22;3.75;;;19.10;73.90;;;;;;5075150;28;20063;-74
2021/07/08 05:06:11;;;;;;;4.43;4.03;;;19.10;73.90;;;;;;5075154;28;20025;-74
2021/07/08 05:08:37;;;;;;;6.80;4.20;;;19.10;73.80;;;;;;5056994;28;20025;-74
2021/07/08 05:11:03;;;;;;;4.57;3.90;;;19.20;73.90;;;;;;5056994;28;20023;-74
2021/07/08 05:13:28;;;;;;;5.03;3.67;;;19.20;73.90;;;;;;5075036;28;20040;-75
2021/07/08 05:15:54;;;;;;;6.72;3.70;;;19.20;73.90;;;;;;5057051;28;20033;-74
2021/07/08 05:18:20;;;;;;;4.40;4.00;;;19.20;73.90;;;;;;5056713;28;20036;-74
2021/07/08 05:20:45;;;;;;;4.20;3.63;;;19.30;73.90;;;;;;5057064;28;20078;-74
2021/07/08 05:23:19;;;;;;;6.10;3.80;;;19.30;73.80;;;;;;5057552;28;20043;-74
2021/07/08 05:25:45;;;;;;;4.13;3.72;;;19.40;73.70;;;;;;5056736;28;20111;-74
2021/07/08 05:28:12;;;;;;;4.43;3.90;;;19.50;73.60;;;;;;5055937;28;20020;-74
2021/07/08 05:30:39;;;;;;;4.38;3.97;;;19.50;73.50;;;;;;5056885;28;20468;-74
2021/07/08 05:33:05;;;;;;;4.32;3.90;;;19.60;74.00;;;;;;5074531;28;20388;-73
2021/07/08 05:35:32;;;;;;;4.75;3.78;;;19.70;73.30;;;;;;5056878;28;20040;-73
2021/07/08 05:37:58;;;;;;;5.70;4.10;;;19.70;73.10;;;;;;5056632;28;20017;-73
2021/07/08 05:40:23;;;;;;;5.43;3.97;;;19.70;73.00;;;;;;5074544;28;20488;-74
2021/07/08 05:42:50;;;;;;;5.65;3.92;;;19.70;73.00;;;;;;5056433;28;20023;-75
2021/07/08 05:45:16;;;;;;;6.28;4.60;;;19.80;73.00;;;;;;5056372;28;20020;-74
2021/07/08 05:47:42;;;;;;;5.53;4.82;;;19.80;72.90;;;;;;5074299;28;20075;-74
2021/07/08 05:50:09;;;;;;;6.32;4.60;;;19.90;72.90;;;;;;5073966;28;20032;-74
2021/07/08 05:52:34;;;;;;;6.90;5.13;;;19.90;72.80;;;;;;5056189;28;20444;-74
2021/07/08 05:55:00;;;;;;;6.47;5.05;;;19.90;72.70;;;;;;5074260;28;20023;-74
2021/07/08 05:57:26;;;;;;;6.00;4.78;;;19.90;72.70;;;;;;5073898;28;20025;-74
2021/07/08 05:59:51;;;;;;;6.55;4.63;;;19.90;72.80;;;;;;5053384;28;20407;-75
2021/07/08 06:02:17;;;;;;;8.95;5.00;;;20.00;72.90;;;;;;5056112;28;20029;-74
2021/07/08 06:04:43;;;;;;;6.20;4.15;;;20.00;72.90;;;;;;5073997;28;20393;-74
2021/07/08 06:07:08;;;;;;;5.38;4.63;;;20.00;72.70;;;;;;5056084;28;20032;-74
2021/07/08 06:09:34;;;;;;;5.68;4.50;;;20.10;72.70;;;;;;5073766;28;20039;-74
2021/07/08 06:12:00;;;;;;;6.03;4.63;;;20.20;72.70;;;;;;5056037;28;20032;-78
2021/07/08 06:15:00;;;;;;;5.22;4.55;;;20.30;72.50;;;;;;5056008;28;20044;-79
2021/07/08 06:17:25;;;;;;;6.43;4.78;;;20.30;72.30;;;;;;5073758;28;20021;-80
2021/07/08 06:19:51;;;;;;;6.13;5.35;;;20.40;72.10;;;;;;5056076;28;20035;-79
2021/07/08 06:22:17;;;;;;;5.30;4.78;;;20.30;72.00;;;;;;5055789;28;20476;-77
2021/07/08 06:24:43;;;;;;;6.00;4.80;;;20.30;72.10;;;;;;5055839;28;20044;-78
2021/07/08 06:27:10;;;;;;;6.18;4.80;;;20.30;72.20;;;;;;5056104;28;20040;-78
2021/07/08 06:29:35;;;;;;;6.38;4.57;;;20.20;72.20;;;;;;5055570;28;20029;-77
2021/07/08 06:32:01;;;;;;;6.07;4.70;;;20.20;72.30;;;;;;5055623;28;20070;-79
2021/07/08 06:34:27;;;;;;;5.63;4.65;;;20.20;72.30;;;;;;5055495;28;20108;-77
2021/07/08 06:36:52;;;;;;;5.97;4.55;;;20.20;72.40;;;;;;5073634;28;20020;-77
2021/07/08 06:39:18;;;;;;;5.15;4.65;;;20.20;72.40;;;;;;5054918;28;20024;-76
2021/07/08 06:41:44;;;;;;;6.32;5.43;;;20.20;72.30;;;;;;5055326;28;20013;-79
2021/07/08 06:44:09;;;;;;;5.43;4.38;;;20.20;72.20;;;;;;5055426;28;20406;-78
2021/07/08 06:46:35;;;;;;;6.05;4.05;;;20.20;72.20;;;;;;5055348;28;20111;-75
2021/07/08 06:49:01;;;;;;;6.30;4.35;;;20.30;72.20;;;;;;5055143;28;20082;-75
2021/07/08 06:51:28;;;;;;;5.20;4.13;;;20.30;72.30;;;;;;5055570;28;20028;-74
2021/07/08 06:53:55;;;;;;;5.32;4.35;;;20.30;72.20;;;;;;5055212;28;20499;-75
2021/07/08 06:56:21;;;;;;;4.70;3.88;;;20.30;72.30;;;;;;5055494;28;20016;-75
2021/07/08 06:58:46;;;;;;;4.88;3.72;;;20.30;72.30;;;;;;5073476;28;20062;-75
2021/07/08 07:01:12;;;;;;;4.97;4.28;;;20.40;73.00;;;;;;5072956;28;20017;-75
2021/07/08 07:03:38;;;;;;;5.10;4.45;;;20.30;72.30;;;;;;5072953;28;20016;-75
2021/07/08 07:09:25;;;;;;;5.70;4.80;;;20.40;72.00;;;;;;5073330;28;20376;-75
2021/07/08 07:11:51;;;;;;;4.47;4.07;;;20.40;71.90;;;;;;5073351;28;20016;-75
2021/07/08 07:14:16;;;;;;;5.93;4.40;;;20.40;71.80;;;;;;5054983;28;20468;-75
2021/07/08 07:16:42;;;;;;;6.20;4.22;;;20.50;71.70;;;;;;5054927;28;20472;-75
2021/07/08 07:19:07;;;;;;;4.90;4.40;;;20.50;71.60;;;;;;5054695;28;20029;-75
2021/07/08 07:21:33;;;;;;;4.88;4.47;;;20.50;71.50;;;;;;5072826;28;20025;-76
2021/07/08 07:24:01;;;;;;;6.25;4.70;;;20.50;71.40;;;;;;5073170;28;20487;-75
2021/07/08 07:26:26;;;;;;;5.60;4.38;;;20.60;71.40;;;;;;5072816;28;20036;-75
2021/07/08 07:28:52;;;;;;;6.05;4.50;;;20.70;71.30;;;;;;5072805;28;20468;-76
2021/07/08 07:31:17;;;;;;;5.45;4.95;;;20.70;71.10;;;;;;5054681;28;20404;-75
2021/07/08 07:33:43;;;;;;;5.63;4.38;;;20.70;71.00;;;;;;5054831;28;20035;-76
2021/07/08 07:36:10;;;;;;;6.13;4.57;;;20.80;70.80;;;;;;5054752;28;20028;-75
2021/07/08 07:38:40;;;;;;;5.22;4.72;;;20.90;70.70;;;;;;5054694;28;20485;-76
2021/07/08 07:41:06;;;;;;;5.47;4.80;;;20.90;70.40;;;;;;5054543;28;20044;-76
2021/07/08 07:43:32;;;;;;;6.57;4.60;;;20.90;70.20;;;;;;5054669;28;20029;-76
2021/07/08 07:45:58;;;;;;;5.68;5.07;;;21.00;70.10;;;;;;5054291;28;20083;-76
2021/07/08 07:48:23;;;;;;;6.18;4.70;;;21.00;69.70;;;;;;5054535;28;20029;-76
2021/07/08 07:50:49;;;;;;;5.90;4.57;;;21.10;69.60;;;;;;5073029;28;20024;-75
2021/07/08 07:53:15;;;;;;;6.25;4.88;;;21.20;69.50;;;;;;5058312;28;20096;-75
2021/07/08 07:59:02;;;;;;;5.45;4.18;;;21.40;69.20;;;;;;5076608;28;20028;-75
2021/07/08 08:01:28;;;;;;;4.25;3.50;;;21.50;69.10;;;;;;5058308;28;20484;-76
2021/07/08 08:03:56;;;;;;;4.97;3.47;;;21.50;68.90;;;;;;5076576;28;20029;-76
2021/07/08 08:09:06;;;;;;;4.50;3.25;;;21.80;68.50;;;;;;5076302;28;20091;-76
2021/07/08 08:11:33;;;;;;;4.13;3.50;;;21.90;68.10;;;;;;5058616;28;20021;-76
2021/07/08 08:13:58;;;;;;;5.20;3.38;;;22.00;67.70;;;;;;5076039;28;20024;-76
2021/07/08 08:16:24;;;;;;;4.32;3.30;;;22.20;67.40;;;;;;5058503;28;20024;-76
2021/07/08 08:18:50;;;;;;;3.72;3.08;;;22.30;67.20;;;;;;5075982;28;20136;-75
2021/07/08 08:21:15;;;;;;;3.08;2.78;;;22.30;66.90;;;;;;5057990;28;20029;-75
2021/07/08 08:23:41;;;;;;;5.07;2.70;;;22.50;66.80;;;;;;5058077;28;20369;-75
2021/07/08 08:26:09;;;;;;;3.45;2.60;;;22.50;66.40;;;;;;5057956;28;20115;-75
2021/07/08 08:28:35;;;;;;;3.47;3.17;;;22.50;66.10;;;;;;5057950;28;20059;-75
2021/07/08 08:31:00;;;;;;;4.30;2.90;;;22.50;65.80;;;;;;5057866;28;20060;-75
2021/07/08 08:33:26;;;;;;;3.13;2.80;;;22.50;65.60;;;;;;5076003;28;20095;-75
2021/07/08 08:35:52;;;;;;;5.40;3.65;;;22.60;65.70;;;;;;5057934;28;20036;-76
2021/07/08 08:38:17;;;;;;;4.20;3.20;;;22.60;65.50;;;;;;5075825;28;20099;-75
2021/07/08 08:44:06;;;;;;;4.60;3.50;;;22.60;65.00;;;;;;5075736;28;20031;-76
2021/07/08 08:46:33;;;;;;;3.20;2.90;;;22.60;65.00;;;;;;5075886;28;20021;-76
2021/07/08 08:49:01;;;;;;;4.32;3.30;;;22.60;65.00;;;;;;5075640;28;20020;-75
2021/07/08 08:51:27;;;;;;;3.97;2.72;;;22.60;64.80;;;;;;5057384;28;20453;-76
2021/07/08 08:53:53;;;;;;;4.38;2.90;;;22.60;64.80;;;;;;5075433;28;20055;-75
2021/07/08 08:56:19;;;;;;;3.65;2.97;;;22.70;64.70;;;;;;5057254;28;20053;-75
2021/07/08 08:58:48;;;;;;;3.67;2.75;;;22.70;65.20;;;;;;5057324;28;20021;-76
2021/07/08 09:01:17;;;;;;;4.57;2.90;;;22.90;64.40;;;;;;5057625;28;20035;-76
2021/07/08 09:03:45;;;;;;;3.70;3.00;;;22.90;64.20;;;;;;5074376;28;20021;-76
2021/07/08 09:06:12;;;;;;;3.72;2.92;;;23.00;64.20;;;;;;5057062;28;20028;-76
2021/07/08 09:08:45;;;;;;;3.60;2.50;;;23.00;63.90;;;;;;5075163;28;20480;-76
2021/07/08 09:11:21;;;;;;;3.88;2.42;;;23.00;64.00;;;;;;5056842;28;20020;-76
2021/07/08 09:14:07;;;;;;;3.90;2.83;;;23.10;64.00;;;;;;5057170;28;20047;-76
2021/07/08 09:16:36;;;;;;;4.32;2.45;;;23.20;63.50;;;;;;5057076;28;20024;-76
2021/07/08 09:19:08;;;;;;;6.15;2.78;;;23.30;63.20;;;;;;5056898;28;20120;-76
2021/07/08 09:21:39;;;;;;;3.63;2.33;;;23.40;62.80;;;;;;5074893;28;20079;-76
2021/07/08 09:24:08;;;;;;;2.95;2.30;;;23.50;62.60;;;;;;5056917;28;20037;-76
2021/07/08 09:26:35;;;;;;;3.40;2.78;;;23.60;62.30;;;;;;5057003;28;20031;-76
2021/07/08 09:32:24;;;;;;;4.18;2.60;;;23.80;61.70;;;;;;5074825;28;20178;-75
2021/07/08 09:34:52;;;;;;;3.85;2.65;;;23.90;61.40;;;;;;5057195;28;20032;-76
2021/07/08 09:37:20;;;;;;;3.22;2.60;;;23.90;61.20;;;;;;5074659;28;20044;-76
2021/07/08 09:39:52;;;;;;;3.67;2.63;;;24.00;61.00;;;;;;5074436;28;20396;-76
2021/07/08 09:42:36;;;;;;;2.67;2.30;;;24.00;60.80;;;;;;5056573;28;20051;-76
2021/07/08 09:45:07;;;;;;;3.28;2.13;;;24.00;60.80;;;;;;5056529;28;20372;-76
2021/07/08 09:47:34;;;;;;;3.53;2.15;;;24.20;60.60;;;;;;5056632;28;20029;-76
2021/07/08 09:50:00;;;;;;;4.53;2.75;;;24.30;60.40;;;;;;5056330;28;20025;-76
2021/07/08 09:52:26;;;;;;;2.97;2.20;;;24.40;60.10;;;;;;5056369;28;20075;-76
2021/07/08 09:57:48;;;;;;;4.38;2.30;;;24.60;59.70;;;;;;5074419;28;20028;-76
2021/07/08 10:00:22;;;;;;;4.20;2.42;;;24.80;59.20;;;;;;5053248;28;20091;-76
2021/07/08 10:02:49;;;;;;;3.03;2.63;;;24.90;59.00;;;;;;5056493;28;20040;-77
2021/07/08 10:05:16;;;;;;;4.15;2.58;;;25.00;58.40;;;;;;5055796;28;20021;-77
2021/07/08 10:07:43;;;;;;;4.20;2.45;;;25.10;58.20;;;;;;5056031;28;20498;-76
2021/07/08 10:10:11;;;;;;;2.47;2.25;;;25.10;57.60;;;;;;5055839;28;20035;-77
2021/07/08 10:12:37;;;;;;;5.47;2.45;;;25.10;57.70;;;;;;5056224;28;20067;-77
2021/07/08 10:15:09;;;;;;;2.95;2.33;;;25.00;57.60;;;;;;5055508;28;20078;-77
2021/07/08 10:17:36;;;;;;;3.67;2.38;;;24.90;57.70;;;;;;5055725;28;20060;-77
2021/07/08 10:20:09;;;;;;;2.70;2.30;;;24.80;57.70;;;;;;5055776;28;20032;-77
2021/07/08 10:22:36;;;;;;;3.03;2.42;;;24.70;57.70;;;;;;5052974;28;20518;-76
2021/07/08 10:25:04;;;;;;;5.85;2.50;;;24.60;57.70;;;;;;5055751;28;20033;-77
2021/07/08 10:27:30;;;;;;;3.58;2.35;;;24.50;57.60;;;;;;5055738;28;20502;-77
2021/07/08 10:29:58;;;;;;;3.00;2.30;;;24.50;57.70;;;;;;5055692;28;20041;-77
2021/07/08 10:32:26;;;;;;;5.45;2.80;;;24.50;57.70;;;;;;5073619;28;20024;-77
2021/07/08 10:34:52;;;;;;;3.05;2.17;;;24.40;57.40;;;;;;5055712;28;20448;-77
2021/07/08 10:37:37;;;;;;;3.35;2.40;;;24.40;57.50;;;;;;5055497;28;20027;-77
2021/07/08 10:40:05;;;;;;;3.03;2.20;;;24.40;57.50;;;;;;5055490;28;20025;-76
2021/07/08 10:42:39;;;;;;;2.60;2.40;;;24.50;57.50;;;;;;5055286;28;20079;-76
2021/07/08 10:45:05;;;;;;;2.67;2.38;;;24.40;57.20;;;;;;5055477;28;20044;-77
2021/07/08 10:47:37;;;;;;;4.22;2.20;;;24.30;57.10;;;;;;5055313;28;20032;-77
2021/07/08 10:50:06;;;;;;;4.88;2.53;;;24.20;57.10;;;;;;5073187;28;20032;-76
2021/07/08 10:52:48;;;;;;;3.42;2.50;;;24.10;57.10;;;;;;5055364;28;20400;-76
2021/07/08 10:55:40;;;;;;;5.07;2.83;;;24.00;57.30;;;;;;5055302;28;20024;-77
2021/07/08 10:58:08;;;;;;;3.15;2.33;;;24.00;57.50;;;;;;5055437;28;20028;-77
2021/07/08 11:00:49;;;;;;;3.72;2.50;;;24.00;57.60;;;;;;5055326;28;20413;-76
2021/07/08 11:03:43;;;;;;;4.10;2.40;;;24.10;58.10;;;;;;5055265;28;20369;-76
2021/07/08 11:06:13;;;;;;;;;;;24.20;57.50;;;;;;5055932;28;20087;-76
2021/07/08 11:08:44;;;;;;;3.38;2.00;;;24.30;57.40;;;;;;5055068;28;19908;-77
2021/07/08 11:11:11;;;;;;;2.20;2.00;;;24.40;57.30;;;;;;5073080;28;20040;-76
2021/07/08 11:13:37;;;;;;;3.22;2.17;;;24.50;57.20;;;;;;5054948;28;20498;-76
2021/07/08 11:16:02;;;;;;;3.60;2.10;;;24.70;56.80;;;;;;5073054;28;20028;-77
2021/07/08 11:18:30;;;;;;;4.57;2.20;;;24.80;56.70;;;;;;5054700;28;20400;-76
2021/07/08 11:20:57;;;;;;;3.72;2.47;;;24.90;56.40;;;;;;5055152;28;20047;-77
2021/07/08 11:23:40;;;;;;;2.15;1.95;;;24.90;55.90;;;;;;5072902;28;20041;-76
2021/07/08 11:29:47;;;;;;;2.75;1.98;;;24.70;56.10;;;;;;5072829;28;20036;-77
2021/07/08 11:32:25;;;;;;;4.63;2.55;;;24.80;56.10;;;;;;5054556;28;20047;-76
2021/07/08 11:34:57;;;;;;;3.17;2.40;;;24.90;55.70;;;;;;5073552;28;20025;-76
2021/07/08 11:37:27;;;;;;;3.38;2.10;;;25.00;55.40;;;;;;5054676;28;20071;-77
2021/07/08 11:39:57;;;;;;;2.30;2.10;;;25.00;55.50;;;;;;5054750;28;20551;-77
2021/07/08 11:42:24;;;;;;;4.00;2.30;;;25.10;55.50;;;;;;5054609;28;20079;-77
2021/07/08 11:44:53;;;;;;;3.05;2.35;;;25.30;55.00;;;;;;5072582;28;20059;-77
2021/07/08 11:47:20;;;;;;;2.25;2.05;;;25.40;55.10;;;;;;5054669;28;20051;-76
2021/07/08 11:49:48;;;;;;;1.83;1.52;;;25.40;54.80;;;;;;5054508;28;20144;-77
2021/07/08 11:52:19;;;;;;;2.95;2.25;;;25.50;55.30;;;;;;5054532;28;20107;-77
2021/07/08 11:54:56;;;;;;;2.65;2.05;;;25.60;54.40;;;;;;5054698;28;20424;-77
2021/07/08 11:57:22;;;;;;;2.58;2.00;;;25.70;54.50;;;;;;5072448;28;20388;-76
2021/07/08 11:59:48;;;;;;;3.70;2.00;;;25.80;54.30;;;;;;5054670;28;20040;-76
2021/07/08 12:02:37;;;;;;;5.15;2.00;;;25.90;54.20;;;;;;5054851;28;20032;-76
2021/07/08 12:05:17;;;;;;;3.22;2.10;;;25.90;53.90;;;;;;5046846;28;20037;-77
2021/07/08 12:07:58;;;;;;;2.33;2.10;;;25.90;53.60;;;;;;5054455;28;20512;-77
2021/07/08 12:10:28;;;;;;;2.53;1.98;;;25.80;54.30;;;;;;5053206;28;20446;-77
2021/07/08 12:12:56;;;;;;;1.90;1.70;;;25.80;53.70;;;;;;5072477;28;20503;-77
2021/07/08 12:15:24;;;;;;;2.80;1.90;;;25.80;53.70;;;;;;5054166;28;20078;-77
2021/07/08 12:17:55;;;;;;;2.10;1.90;;;25.80;53.50;;;;;;5054018;28;20024;-77
2021/07/08 12:20:21;;;;;;;3.22;1.85;;;25.90;53.50;;;;;;5054172;28;20099;-76
2021/07/08 12:22:55;;;;;;;2.47;1.73;;;25.90;53.40;;;;;;5054474;28;20025;-76
2021/07/08 12:25:23;;;;;;;3.28;2.22;;;25.90;53.20;;;;;;5054166;28;20120;-77
2021/07/08 12:27:49;;;;;;;4.63;2.17;;;26.00;53.00;;;;;;5054229;28;20031;-77
2021/07/08 12:30:17;;;;;;;2.13;1.75;;;26.00;52.70;;;;;;5071955;28;20032;-77
2021/07/08 12:32:43;;;;;;;2.70;1.90;;;26.00;52.70;;;;;;5072098;28;20032;-77
2021/07/08 12:35:08;;;;;;;4.28;2.10;;;26.20;52.70;;;;;;5054294;28;20039;-77
2021/07/08 12:37:36;;;;;;;3.17;2.10;;;26.20;52.30;;;;;;5071358;28;20024;-77
2021/07/08 12:40:20;;;;;;;2.40;1.85;;;26.30;52.30;;;;;;5057891;28;20028;-76
2021/07/08 12:42:49;;;;;;;2.00;1.80;;;26.30;52.30;;;;;;5075590;28;20109;-76
2021/07/08 12:45:18;;;;;;;2.65;1.83;;;26.30;52.40;;;;;;5053137;28;20037;-76
2021/07/08 12:47:47;;;;;;;3.17;1.60;;;26.20;52.10;;;;;;5057605;28;20112;-76
2021/07/08 12:50:19;;;;;;;2.33;1.55;;;26.20;52.20;;;;;;5075706;28;20036;-76
2021/07/08 12:52:45;;;;;;;2.28;1.70;;;26.20;52.10;;;;;;5057454;28;20384;-76
2021/07/08 12:55:35;;;;;;;1.63;1.52;;;26.30;52.20;;;;;;5057366;28;20032;-77
2021/07/08 12:58:25;;;;;;;1.85;1.70;;;26.30;52.10;;;;;;5075190;28;20029;-76
2021/07/08 13:00:52;;;;;;;1.95;1.45;;;26.30;51.80;;;;;;5075176;28;20032;-76
2021/07/08 13:03:20;;;;;;;2.05;1.65;;;26.30;51.80;;;;;;5057238;28;20050;-76
2021/07/08 13:05:47;;;;;;;2.47;1.77;;;26.40;51.70;;;;;;5057116;28;20111;-76
2021/07/08 13:08:15;;;;;;;1.52;1.42;;;26.50;51.60;;;;;;5057247;28;20024;-76
2021/07/08 13:10:45;;;;;;;2.00;1.48;;;26.60;51.50;;;;;;5056910;28;20035;-76
2021/07/08 13:13:24;;;;;;;1.85;1.45;;;26.60;51.40;;;;;;5075035;28;20508;-76